sensor_id;sensor_type;location;lat;lon;timestamp;P1;durP1;ratioP1;P2;durP2;ratioP2
59062;SDS011;44851;45.648;9.004;2024-03-02T00:01:03;4.37;;;2.63;;
59062;SDS011;44851;45.648;9.004;2024-03-02T00:03:28;3.33;;;2.57;;
59062;SDS011;44851;45.648;9.004;2024-03-02T00:05:54;2.60;;;2.40;;
59062;SDS011;44851;45.648;9.004;2024-03-02T00:08:22;2.47;;;2.27;;
59062;SDS011;44851;45.648;9.004;2024-03-02T00:10:49;2.80;;;2.60;;
59062;SDS011;44851;45.648;9.004;2024-03-02T00:13:15;3.37;;;2.40;;
59062;SDS011;44851;45.648;9.004;2024-03-02T00:18:20;4.80;;;2.70;;
59062;SDS011;44851;45.648;9.004;2024-03-02T00:20:49;3.20;;;2.67;;
59062;SDS011;44851;45.648;9.004;2024-03-02T00:23:18;4.87;;;2.73;;
59062;SDS011;44851;45.648;9.004;2024-03-02T00:25:46;3.20;;;2.83;;
59062;SDS011;44851;45.648;9.004;2024-03-02T00:28:14;3.50;;;2.93;;
59062;SDS011;44851;45.648;9.004;2024-03-02T00:30:59;4.23;;;3.43;;
59062;SDS011;44851;45.648;9.004;2024-03-02T00:33:33;5.70;;;4.20;;
59062;SDS011;44851;45.648;9.004;2024-03-02T00:35:59;6.57;;;4.80;;
59062;SDS011;44851;45.648;9.004;2024-03-02T00:38:26;5.37;;;4.30;;
59062;SDS011;44851;45.648;9.004;2024-03-02T00:40:53;5.40;;;3.70;;
59062;SDS011;44851;45.648;9.004;2024-03-02T00:45:44;3.17;;;2.40;;
59062;SDS011;44851;45.648;9.004;2024-03-02T00:48:10;2.30;;;2.10;;
59062;SDS011;44851;45.648;9.004;2024-03-02T00:50:35;4.80;;;1.90;;
59062;SDS011;44851;45.648;9.004;2024-03-02T00:53:01;1.80;;;1.70;;
59062;SDS011;44851;45.648;9.004;2024-03-02T00:55:27;1.87;;;1.73;;
59062;SDS011;44851;45.648;9.004;2024-03-02T00:57:52;2.57;;;2.00;;
59062;SDS011;44851;45.648;9.004;2024-03-02T01:00:18;1.70;;;1.50;;
59062;SDS011;44851;45.648;9.004;2024-03-02T01:02:43;1.70;;;1.53;;
59062;SDS011;44851;45.648;9.004;2024-03-02T01:05:10;1.60;;;1.50;;
59062;SDS011;44851;45.648;9.004;2024-03-02T01:07:37;2.10;;;1.83;;
59062;SDS011;44851;45.648;9.004;2024-03-02T01:10:03;1.40;;;1.30;;
59062;SDS011;44851;45.648;9.004;2024-03-02T01:12:29;1.80;;;1.60;;
59062;SDS011;44851;45.648;9.004;2024-03-02T01:14:54;2.27;;;1.40;;
59062;SDS011;44851;45.648;9.004;2024-03-02T01:17:19;2.40;;;1.60;;
59062;SDS011;44851;45.648;9.004;2024-03-02T01:19:45;2.83;;;1.57;;
59062;SDS011;44851;45.648;9.004;2024-03-02T01:22:10;1.50;;;1.40;;
59062;SDS011;44851;45.648;9.004;2024-03-02T01:24:35;2.53;;;1.60;;
59062;SDS011;44851;45.648;9.004;2024-03-02T01:27:01;2.13;;;1.60;;
59062;SDS011;44851;45.648;9.004;2024-03-02T01:29:26;2.37;;;1.47;;
59062;SDS011;44851;45.648;9.004;2024-03-02T01:31:51;1.67;;;1.57;;
59062;SDS011;44851;45.648;9.004;2024-03-02T01:34:18;1.67;;;1.50;;
59062;SDS011;44851;45.648;9.004;2024-03-02T01:36:44;1.33;;;1.23;;
59062;SDS011;44851;45.648;9.004;2024-03-02T01:39:09;1.90;;;1.70;;
59062;SDS011;44851;45.648;9.004;2024-03-02T01:41:34;1.47;;;1.37;;
59062;SDS011;44851;45.648;9.004;2024-03-02T01:44:00;1.80;;;1.37;;
59062;SDS011;44851;45.648;9.004;2024-03-02T01:46:25;1.83;;;1.30;;
59062;SDS011;44851;45.648;9.004;2024-03-02T01:48:50;1.80;;;1.70;;
59062;SDS011;44851;45.648;9.004;2024-03-02T01:51:16;1.60;;;1.50;;
59062;SDS011;44851;45.648;9.004;2024-03-02T01:53:41;2.33;;;1.60;;
59062;SDS011;44851;45.648;9.004;2024-03-02T01:56:06;1.40;;;1.30;;
59062;SDS011;44851;45.648;9.004;2024-03-02T01:58:32;2.50;;;1.27;;
59062;SDS011;44851;45.648;9.004;2024-03-02T02:00:57;1.33;;;1.10;;
59062;SDS011;44851;45.648;9.004;2024-03-02T02:03:22;1.43;;;1.30;;
59062;SDS011;44851;45.648;9.004;2024-03-02T02:05:48;1.67;;;1.13;;
59062;SDS011;44851;45.648;9.004;2024-03-02T02:08:13;1.13;;;1.03;;
59062;SDS011;44851;45.648;9.004;2024-03-02T02:10:39;1.30;;;1.20;;
59062;SDS011;44851;45.648;9.004;2024-03-02T02:13:04;1.90;;;1.30;;
59062;SDS011;44851;45.648;9.004;2024-03-02T02:15:30;1.20;;;1.10;;
59062;SDS011;44851;45.648;9.004;2024-03-02T02:17:57;1.83;;;1.10;;
59062;SDS011;44851;45.648;9.004;2024-03-02T02:20:23;1.90;;;1.10;;
59062;SDS011;44851;45.648;9.004;2024-03-02T02:22:59;2.27;;;1.00;;
59062;SDS011;44851;45.648;9.004;2024-03-02T02:25:25;1.00;;;0.90;;
59062;SDS011;44851;45.648;9.004;2024-03-02T02:27:51;1.07;;;1.00;;
59062;SDS011;44851;45.648;9.004;2024-03-02T02:30:27;2.20;;;1.10;;
59062;SDS011;44851;45.648;9.004;2024-03-02T02:32:55;2.83;;;1.30;;
59062;SDS011;44851;45.648;9.004;2024-03-02T02:35:21;1.27;;;1.10;;
59062;SDS011;44851;45.648;9.004;2024-03-02T02:37:47;0.93;;;0.90;;
59062;SDS011;44851;45.648;9.004;2024-03-02T02:40:13;0.90;;;0.90;;
59062;SDS011;44851;45.648;9.004;2024-03-02T02:42:39;1.20;;;1.00;;
59062;SDS011;44851;45.648;9.004;2024-03-02T02:45:05;1.80;;;0.90;;
59062;SDS011;44851;45.648;9.004;2024-03-02T02:47:31;1.00;;;1.00;;
59062;SDS011;44851;45.648;9.004;2024-03-02T02:49:59;0.93;;;0.90;;
59062;SDS011;44851;45.648;9.004;2024-03-02T02:52:26;1.03;;;0.90;;
59062;SDS011;44851;45.648;9.004;2024-03-02T02:54:58;1.03;;;0.93;;
59062;SDS011;44851;45.648;9.004;2024-03-02T02:57:23;1.10;;;1.00;;
59062;SDS011;44851;45.648;9.004;2024-03-02T02:59:48;1.00;;;1.00;;
59062;SDS011;44851;45.648;9.004;2024-03-02T03:02:14;1.40;;;1.30;;
59062;SDS011;44851;45.648;9.004;2024-03-02T03:04:39;2.17;;;1.70;;
59062;SDS011;44851;45.648;9.004;2024-03-02T03:07:05;1.40;;;1.30;;
59062;SDS011;44851;45.648;9.004;2024-03-02T03:09:31;1.40;;;1.30;;
59062;SDS011;44851;45.648;9.004;2024-03-02T03:11:56;2.00;;;1.37;;
59062;SDS011;44851;45.648;9.004;2024-03-02T03:14:21;1.57;;;1.47;;
59062;SDS011;44851;45.648;9.004;2024-03-02T03:16:48;2.00;;;1.37;;
59062;SDS011;44851;45.648;9.004;2024-03-02T03:19:13;1.70;;;1.60;;
59062;SDS011;44851;45.648;9.004;2024-03-02T03:21:39;1.50;;;1.40;;
59062;SDS011;44851;45.648;9.004;2024-03-02T03:24:04;1.57;;;1.47;;
59062;SDS011;44851;45.648;9.004;2024-03-02T03:26:29;1.73;;;1.60;;
59062;SDS011;44851;45.648;9.004;2024-03-02T03:28:55;1.60;;;1.50;;
59062;SDS011;44851;45.648;9.004;2024-03-02T03:31:20;1.23;;;1.13;;
59062;SDS011;44851;45.648;9.004;2024-03-02T03:33:45;1.57;;;1.47;;
59062;SDS011;44851;45.648;9.004;2024-03-02T03:36:11;1.83;;;1.30;;
59062;SDS011;44851;45.648;9.004;2024-03-02T03:38:36;1.63;;;1.20;;
59062;SDS011;44851;45.648;9.004;2024-03-02T03:41:01;1.40;;;1.30;;
59062;SDS011;44851;45.648;9.004;2024-03-02T03:43:27;1.90;;;1.40;;
59062;SDS011;44851;45.648;9.004;2024-03-02T03:45:52;1.60;;;1.50;;
59062;SDS011;44851;45.648;9.004;2024-03-02T03:48:18;1.90;;;1.50;;
59062;SDS011;44851;45.648;9.004;2024-03-02T03:50:43;2.07;;;1.87;;
59062;SDS011;44851;45.648;9.004;2024-03-02T03:53:09;2.67;;;1.90;;
59062;SDS011;44851;45.648;9.004;2024-03-02T03:55:34;1.90;;;1.80;;
59062;SDS011;44851;45.648;9.004;2024-03-02T03:58:00;3.13;;;1.80;;
59062;SDS011;44851;45.648;9.004;2024-03-02T04:00:25;2.00;;;1.80;;
59062;SDS011;44851;45.648;9.004;2024-03-02T04:02:51;4.07;;;1.90;;
59062;SDS011;44851;45.648;9.004;2024-03-02T04:05:16;1.93;;;1.67;;
59062;SDS011;44851;45.648;9.004;2024-03-02T04:07:41;1.63;;;1.53;;
59062;SDS011;44851;45.648;9.004;2024-03-02T04:10:08;1.93;;;1.23;;
59062;SDS011;44851;45.648;9.004;2024-03-02T04:12:35;2.80;;;1.30;;
59062;SDS011;44851;45.648;9.004;2024-03-02T04:15:02;4.13;;;1.50;;
59062;SDS011;44851;45.648;9.004;2024-03-02T04:17:31;2.83;;;1.80;;
59062;SDS011;44851;45.648;9.004;2024-03-02T04:19:58;1.43;;;1.33;;
59062;SDS011;44851;45.648;9.004;2024-03-02T04:22:24;1.60;;;1.50;;
59062;SDS011;44851;45.648;9.004;2024-03-02T04:24:49;2.13;;;1.30;;
59062;SDS011;44851;45.648;9.004;2024-03-02T04:27:15;1.30;;;1.20;;
59062;SDS011;44851;45.648;9.004;2024-03-02T04:29:40;1.63;;;1.33;;
59062;SDS011;44851;45.648;9.004;2024-03-02T04:32:05;1.60;;;1.50;;
59062;SDS011;44851;45.648;9.004;2024-03-02T04:34:31;1.83;;;1.67;;
59062;SDS011;44851;45.648;9.004;2024-03-02T04:36:57;1.60;;;1.47;;
59062;SDS011;44851;45.648;9.004;2024-03-02T04:39:22;1.73;;;1.50;;
59062;SDS011;44851;45.648;9.004;2024-03-02T04:41:47;1.77;;;1.50;;
59062;SDS011;44851;45.648;9.004;2024-03-02T04:44:12;1.90;;;1.80;;
59062;SDS011;44851;45.648;9.004;2024-03-02T04:46:38;2.07;;;1.60;;
59062;SDS011;44851;45.648;9.004;2024-03-02T04:49:03;2.00;;;1.90;;
59062;SDS011;44851;45.648;9.004;2024-03-02T04:51:28;1.87;;;1.57;;
59062;SDS011;44851;45.648;9.004;2024-03-02T04:53:54;1.50;;;1.40;;
59062;SDS011;44851;45.648;9.004;2024-03-02T04:56:19;1.50;;;1.40;;
59062;SDS011;44851;45.648;9.004;2024-03-02T04:59:04;1.93;;;1.40;;
59062;SDS011;44851;45.648;9.004;2024-03-02T05:01:29;1.60;;;1.50;;
59062;SDS011;44851;45.648;9.004;2024-03-02T05:03:54;3.17;;;1.30;;
59062;SDS011;44851;45.648;9.004;2024-03-02T05:06:20;1.60;;;1.50;;
59062;SDS011;44851;45.648;9.004;2024-03-02T05:08:45;2.70;;;1.87;;
59062;SDS011;44851;45.648;9.004;2024-03-02T05:11:10;1.87;;;1.73;;
59062;SDS011;44851;45.648;9.004;2024-03-02T05:14:06;1.60;;;1.50;;
59062;SDS011;44851;45.648;9.004;2024-03-02T05:16:35;3.30;;;1.80;;
59062;SDS011;44851;45.648;9.004;2024-03-02T05:19:03;3.40;;;2.33;;
59062;SDS011;44851;45.648;9.004;2024-03-02T05:21:28;1.67;;;1.57;;
59062;SDS011;44851;45.648;9.004;2024-03-02T05:23:54;1.70;;;1.60;;
59062;SDS011;44851;45.648;9.004;2024-03-02T05:26:19;2.60;;;1.60;;
59062;SDS011;44851;45.648;9.004;2024-03-02T05:28:44;3.43;;;2.13;;
59062;SDS011;44851;45.648;9.004;2024-03-02T05:31:10;3.23;;;2.60;;
59062;SDS011;44851;45.648;9.004;2024-03-02T05:33:39;3.37;;;2.60;;
59062;SDS011;44851;45.648;9.004;2024-03-02T05:36:05;3.50;;;2.60;;
59062;SDS011;44851;45.648;9.004;2024-03-02T05:38:31;2.33;;;2.03;;
59062;SDS011;44851;45.648;9.004;2024-03-02T05:40:56;2.37;;;2.03;;
59062;SDS011;44851;45.648;9.004;2024-03-02T05:43:22;2.37;;;2.17;;
59062;SDS011;44851;45.648;9.004;2024-03-02T05:45:47;2.30;;;2.07;;
59062;SDS011;44851;45.648;9.004;2024-03-02T05:48:12;3.67;;;1.90;;
59062;SDS011;44851;45.648;9.004;2024-03-02T05:50:38;2.50;;;2.30;;
59062;SDS011;44851;45.648;9.004;2024-03-02T05:53:03;3.17;;;2.40;;
59062;SDS011;44851;45.648;9.004;2024-03-02T05:55:28;2.73;;;2.37;;
59062;SDS011;44851;45.648;9.004;2024-03-02T05:57:54;2.47;;;2.00;;
59062;SDS011;44851;45.648;9.004;2024-03-02T06:00:31;2.63;;;2.43;;
59062;SDS011;44851;45.648;9.004;2024-03-02T06:02:57;2.60;;;2.40;;
59062;SDS011;44851;45.648;9.004;2024-03-02T06:05:23;3.23;;;2.77;;
59062;SDS011;44851;45.648;9.004;2024-03-02T06:07:49;3.20;;;2.80;;
59062;SDS011;44851;45.648;9.004;2024-03-02T06:10:15;3.07;;;2.57;;
59062;SDS011;44851;45.648;9.004;2024-03-02T06:12:41;3.27;;;2.87;;
59062;SDS011;44851;45.648;9.004;2024-03-02T06:15:07;3.57;;;3.23;;
59062;SDS011;44851;45.648;9.004;2024-03-02T06:17:34;5.50;;;3.37;;
59062;SDS011;44851;45.648;9.004;2024-03-02T06:20:00;3.47;;;2.87;;
59062;SDS011;44851;45.648;9.004;2024-03-02T06:22:25;4.30;;;3.43;;
59062;SDS011;44851;45.648;9.004;2024-03-02T06:24:51;4.30;;;3.90;;
59062;SDS011;44851;45.648;9.004;2024-03-02T06:27:16;4.27;;;3.73;;
59062;SDS011;44851;45.648;9.004;2024-03-02T06:29:41;5.23;;;4.73;;
59062;SDS011;44851;45.648;9.004;2024-03-02T06:32:07;5.03;;;4.50;;
59062;SDS011;44851;45.648;9.004;2024-03-02T06:34:32;6.20;;;4.90;;
59062;SDS011;44851;45.648;9.004;2024-03-02T06:36:57;5.90;;;4.73;;
59062;SDS011;44851;45.648;9.004;2024-03-02T06:39:22;6.00;;;5.20;;
59062;SDS011;44851;45.648;9.004;2024-03-02T06:41:48;6.40;;;5.80;;
59062;SDS011;44851;45.648;9.004;2024-03-02T06:44:13;5.77;;;5.27;;
59062;SDS011;44851;45.648;9.004;2024-03-02T06:46:39;6.00;;;5.40;;
59062;SDS011;44851;45.648;9.004;2024-03-02T06:49:04;6.37;;;5.50;;
59062;SDS011;44851;45.648;9.004;2024-03-02T06:51:29;6.97;;;6.03;;
59062;SDS011;44851;45.648;9.004;2024-03-02T06:53:55;6.70;;;6.10;;
59062;SDS011;44851;45.648;9.004;2024-03-02T06:56:20;7.40;;;6.10;;
59062;SDS011;44851;45.648;9.004;2024-03-02T06:58:46;7.40;;;6.70;;
59062;SDS011;44851;45.648;9.004;2024-03-02T07:01:12;7.87;;;7.17;;
59062;SDS011;44851;45.648;9.004;2024-03-02T07:03:37;9.57;;;7.77;;
59062;SDS011;44851;45.648;9.004;2024-03-02T07:06:04;9.10;;;8.20;;
59062;SDS011;44851;45.648;9.004;2024-03-02T07:08:30;10.30;;;9.20;;
59062;SDS011;44851;45.648;9.004;2024-03-02T07:10:55;11.33;;;9.90;;
59062;SDS011;44851;45.648;9.004;2024-03-02T07:13:21;13.57;;;12.17;;
59062;SDS011;44851;45.648;9.004;2024-03-02T07:15:47;13.93;;;12.60;;
59062;SDS011;44851;45.648;9.004;2024-03-02T07:18:44;13.90;;;12.50;;
59062;SDS011;44851;45.648;9.004;2024-03-02T07:21:16;13.60;;;12.27;;
59062;SDS011;44851;45.648;9.004;2024-03-02T07:23:41;15.73;;;14.13;;
59062;SDS011;44851;45.648;9.004;2024-03-02T07:26:06;15.27;;;13.87;;
59062;SDS011;44851;45.648;9.004;2024-03-02T07:28:32;18.40;;;14.03;;
59062;SDS011;44851;45.648;9.004;2024-03-02T07:30:58;16.20;;;14.53;;
59062;SDS011;44851;45.648;9.004;2024-03-02T07:33:28;17.20;;;15.17;;
59062;SDS011;44851;45.648;9.004;2024-03-02T07:35:53;16.27;;;14.63;;
59062;SDS011;44851;45.648;9.004;2024-03-02T07:38:20;16.03;;;13.97;;
59062;SDS011;44851;45.648;9.004;2024-03-02T07:40:46;15.33;;;13.80;;
59062;SDS011;44851;45.648;9.004;2024-03-02T07:43:12;16.50;;;15.00;;
59062;SDS011;44851;45.648;9.004;2024-03-02T07:45:37;17.87;;;15.90;;
59062;SDS011;44851;45.648;9.004;2024-03-02T07:48:03;16.83;;;15.13;;
59062;SDS011;44851;45.648;9.004;2024-03-02T07:50:29;17.13;;;15.40;;
59062;SDS011;44851;45.648;9.004;2024-03-02T07:52:55;18.97;;;15.90;;
59062;SDS011;44851;45.648;9.004;2024-03-02T07:55:21;17.83;;;16.03;;
59062;SDS011;44851;45.648;9.004;2024-03-02T07:57:46;18.13;;;16.23;;
59062;SDS011;44851;45.648;9.004;2024-03-02T08:00:12;18.63;;;16.73;;
59062;SDS011;44851;45.648;9.004;2024-03-02T08:02:37;18.63;;;16.60;;
59062;SDS011;44851;45.648;9.004;2024-03-02T08:05:03;20.33;;;18.07;;
59062;SDS011;44851;45.648;9.004;2024-03-02T08:07:29;20.90;;;18.30;;
59062;SDS011;44851;45.648;9.004;2024-03-02T08:09:54;18.80;;;16.80;;
59062;SDS011;44851;45.648;9.004;2024-03-02T08:12:19;18.70;;;16.27;;
59062;SDS011;44851;45.648;9.004;2024-03-02T08:14:46;17.93;;;16.10;;
59062;SDS011;44851;45.648;9.004;2024-03-02T08:17:12;16.60;;;14.83;;
59062;SDS011;44851;45.648;9.004;2024-03-02T08:19:37;16.90;;;14.87;;
59062;SDS011;44851;45.648;9.004;2024-03-02T08:22:03;16.23;;;14.57;;
59062;SDS011;44851;45.648;9.004;2024-03-02T08:24:28;16.70;;;14.90;;
59062;SDS011;44851;45.648;9.004;2024-03-02T08:26:54;17.13;;;14.80;;
59062;SDS011;44851;45.648;9.004;2024-03-02T08:29:19;17.73;;;15.63;;
59062;SDS011;44851;45.648;9.004;2024-03-02T08:31:44;17.33;;;12.97;;
59062;SDS011;44851;45.648;9.004;2024-03-02T08:34:10;15.97;;;11.97;;
59062;SDS011;44851;45.648;9.004;2024-03-02T08:36:35;15.13;;;13.30;;
59062;SDS011;44851;45.648;9.004;2024-03-02T08:39:01;16.70;;;13.70;;
59062;SDS011;44851;45.648;9.004;2024-03-02T08:41:28;15.17;;;12.77;;
59062;SDS011;44851;45.648;9.004;2024-03-02T08:43:53;17.40;;;13.17;;
59062;SDS011;44851;45.648;9.004;2024-03-02T08:46:19;11.87;;;10.67;;
59062;SDS011;44851;45.648;9.004;2024-03-02T08:48:45;13.70;;;12.30;;
59062;SDS011;44851;45.648;9.004;2024-03-02T08:51:10;13.37;;;11.97;;
59062;SDS011;44851;45.648;9.004;2024-03-02T08:53:36;14.13;;;11.97;;
59062;SDS011;44851;45.648;9.004;2024-03-02T08:56:01;11.20;;;10.17;;
59062;SDS011;44851;45.648;9.004;2024-03-02T08:58:27;11.20;;;10.10;;
59062;SDS011;44851;45.648;9.004;2024-03-02T09:00:52;12.77;;;11.43;;
59062;SDS011;44851;45.648;9.004;2024-03-02T09:03:18;9.23;;;8.27;;
59062;SDS011;44851;45.648;9.004;2024-03-02T09:05:43;10.33;;;7.17;;
59062;SDS011;44851;45.648;9.004;2024-03-02T09:08:09;7.80;;;7.00;;
59062;SDS011;44851;45.648;9.004;2024-03-02T09:10:35;9.10;;;7.03;;
59062;SDS011;44851;45.648;9.004;2024-03-02T09:13:01;8.80;;;6.63;;
59062;SDS011;44851;45.648;9.004;2024-03-02T09:15:26;8.07;;;7.27;;
59062;SDS011;44851;45.648;9.004;2024-03-02T09:17:52;9.23;;;6.60;;
59062;SDS011;44851;45.648;9.004;2024-03-02T09:20:17;8.77;;;6.30;;
59062;SDS011;44851;45.648;9.004;2024-03-02T09:22:42;7.60;;;6.00;;
59062;SDS011;44851;45.648;9.004;2024-03-02T09:25:08;8.57;;;6.73;;
59062;SDS011;44851;45.648;9.004;2024-03-02T09:27:36;10.00;;;7.00;;
59062;SDS011;44851;45.648;9.004;2024-03-02T09:30:02;10.43;;;7.40;;
59062;SDS011;44851;45.648;9.004;2024-03-02T09:32:30;9.57;;;6.73;;
59062;SDS011;44851;45.648;9.004;2024-03-02T09:34:56;10.03;;;7.17;;
59062;SDS011;44851;45.648;9.004;2024-03-02T09:37:21;9.97;;;6.93;;
59062;SDS011;44851;45.648;9.004;2024-03-02T09:39:46;7.83;;;6.30;;
59062;SDS011;44851;45.648;9.004;2024-03-02T09:42:12;9.70;;;6.30;;
59062;SDS011;44851;45.648;9.004;2024-03-02T09:44:37;10.37;;;6.47;;
59062;SDS011;44851;45.648;9.004;2024-03-02T09:47:03;8.90;;;7.23;;
59062;SDS011;44851;45.648;9.004;2024-03-02T09:49:29;12.90;;;6.83;;
59062;SDS011;44851;45.648;9.004;2024-03-02T09:51:55;8.40;;;7.53;;
59062;SDS011;44851;45.648;9.004;2024-03-02T09:54:21;11.67;;;9.40;;
59062;SDS011;44851;45.648;9.004;2024-03-02T09:56:47;13.80;;;9.77;;
59062;SDS011;44851;45.648;9.004;2024-03-02T09:59:12;10.67;;;7.63;;
59062;SDS011;44851;45.648;9.004;2024-03-02T10:01:54;14.13;;;9.73;;
59062;SDS011;44851;45.648;9.004;2024-03-02T10:04:20;12.37;;;11.03;;
59062;SDS011;44851;45.648;9.004;2024-03-02T10:06:46;14.17;;;12.00;;
59062;SDS011;44851;45.648;9.004;2024-03-02T10:09:13;10.50;;;9.50;;
59062;SDS011;44851;45.648;9.004;2024-03-02T10:11:51;9.90;;;7.00;;
59062;SDS011;44851;45.648;9.004;2024-03-02T10:14:17;7.13;;;6.43;;
59062;SDS011;44851;45.648;9.004;2024-03-02T10:16:43;11.50;;;6.37;;
59062;SDS011;44851;45.648;9.004;2024-03-02T10:21:48;9.10;;;6.23;;
59062;SDS011;44851;45.648;9.004;2024-03-02T10:24:15;7.63;;;6.07;;
59062;SDS011;44851;45.648;9.004;2024-03-02T10:26:41;8.20;;;6.00;;
59062;SDS011;44851;45.648;9.004;2024-03-02T10:29:10;10.57;;;6.70;;
59062;SDS011;44851;45.648;9.004;2024-03-02T10:31:36;10.23;;;6.57;;
59062;SDS011;44851;45.648;9.004;2024-03-02T10:34:06;8.00;;;6.43;;
59062;SDS011;44851;45.648;9.004;2024-03-02T10:36:33;9.43;;;6.63;;
59062;SDS011;44851;45.648;9.004;2024-03-02T10:39:03;11.30;;;6.63;;
59062;SDS011;44851;45.648;9.004;2024-03-02T10:41:30;8.63;;;6.63;;
59062;SDS011;44851;45.648;9.004;2024-03-02T10:44:01;7.70;;;6.90;;
59062;SDS011;44851;45.648;9.004;2024-03-02T10:46:28;7.70;;;6.93;;
59062;SDS011;44851;45.648;9.004;2024-03-02T10:48:55;8.10;;;6.80;;
59062;SDS011;44851;45.648;9.004;2024-03-02T10:51:24;9.30;;;7.63;;
59062;SDS011;44851;45.648;9.004;2024-03-02T10:53:54;9.90;;;8.20;;
59062;SDS011;44851;45.648;9.004;2024-03-02T10:56:27;9.70;;;8.50;;
59062;SDS011;44851;45.648;9.004;2024-03-02T10:59:05;9.37;;;8.00;;
59062;SDS011;44851;45.648;9.004;2024-03-02T11:01:41;8.87;;;7.13;;
59062;SDS011;44851;45.648;9.004;2024-03-02T11:04:08;10.60;;;7.00;;
59062;SDS011;44851;45.648;9.004;2024-03-02T11:06:37;9.47;;;7.50;;
59062;SDS011;44851;45.648;9.004;2024-03-02T11:09:07;8.10;;;6.87;;
59062;SDS011;44851;45.648;9.004;2024-03-02T11:11:40;7.13;;;6.50;;
59062;SDS011;44851;45.648;9.004;2024-03-02T11:14:07;10.27;;;7.07;;
59062;SDS011;44851;45.648;9.004;2024-03-02T11:16:38;11.57;;;7.40;;
59062;SDS011;44851;45.648;9.004;2024-03-02T11:19:07;10.93;;;6.70;;
59062;SDS011;44851;45.648;9.004;2024-03-02T11:21:36;9.80;;;6.83;;
59062;SDS011;44851;45.648;9.004;2024-03-02T11:26:46;9.60;;;6.63;;
59062;SDS011;44851;45.648;9.004;2024-03-02T11:29:42;7.87;;;6.90;;
59062;SDS011;44851;45.648;9.004;2024-03-02T11:32:01;8.07;;;6.83;;
59062;SDS011;44851;45.648;9.004;2024-03-02T11:34:30;7.93;;;6.57;;
59062;SDS011;44851;45.648;9.004;2024-03-02T11:36:56;6.37;;;5.63;;
59062;SDS011;44851;45.648;9.004;2024-03-02T11:39:29;7.70;;;5.63;;
59062;SDS011;44851;45.648;9.004;2024-03-02T11:41:55;7.23;;;6.37;;
59062;SDS011;44851;45.648;9.004;2024-03-02T11:44:22;8.80;;;6.97;;
59062;SDS011;44851;45.648;9.004;2024-03-02T11:47:08;8.70;;;6.20;;
59062;SDS011;44851;45.648;9.004;2024-03-02T11:49:36;8.83;;;6.47;;
59062;SDS011;44851;45.648;9.004;2024-03-02T11:52:07;8.07;;;7.23;;
59062;SDS011;44851;45.648;9.004;2024-03-02T11:54:35;7.80;;;6.83;;
59062;SDS011;44851;45.648;9.004;2024-03-02T11:57:11;7.23;;;6.27;;
59062;SDS011;44851;45.648;9.004;2024-03-02T11:59:37;6.97;;;6.30;;
59062;SDS011;44851;45.648;9.004;2024-03-02T12:02:02;7.17;;;6.47;;
59062;SDS011;44851;45.648;9.004;2024-03-02T12:04:28;8.17;;;6.67;;
59062;SDS011;44851;45.648;9.004;2024-03-02T12:06:57;7.13;;;6.43;;
59062;SDS011;44851;45.648;9.004;2024-03-02T12:09:25;8.53;;;7.27;;
59062;SDS011;44851;45.648;9.004;2024-03-02T12:12:01;8.00;;;7.13;;
59062;SDS011;44851;45.648;9.004;2024-03-02T12:14:31;11.70;;;7.27;;
59062;SDS011;44851;45.648;9.004;2024-03-02T12:16:57;9.47;;;6.90;;
59062;SDS011;44851;45.648;9.004;2024-03-02T12:19:23;8.70;;;7.17;;
59062;SDS011;44851;45.648;9.004;2024-03-02T12:21:49;11.57;;;8.50;;
59062;SDS011;44851;45.648;9.004;2024-03-02T12:24:15;9.63;;;8.77;;
59062;SDS011;44851;45.648;9.004;2024-03-02T12:26:40;11.83;;;7.87;;
59062;SDS011;44851;45.648;9.004;2024-03-02T12:29:06;10.13;;;8.50;;
59062;SDS011;44851;45.648;9.004;2024-03-02T12:31:32;10.37;;;9.13;;
59062;SDS011;44851;45.648;9.004;2024-03-02T12:33:58;11.13;;;9.87;;
59062;SDS011;44851;45.648;9.004;2024-03-02T12:36:23;12.40;;;11.30;;
59062;SDS011;44851;45.648;9.004;2024-03-02T12:38:52;13.27;;;11.83;;
59062;SDS011;44851;45.648;9.004;2024-03-02T12:41:18;13.13;;;11.93;;
59062;SDS011;44851;45.648;9.004;2024-03-02T12:43:43;12.67;;;11.47;;
59062;SDS011;44851;45.648;9.004;2024-03-02T12:46:08;14.07;;;12.63;;
59062;SDS011;44851;45.648;9.004;2024-03-02T12:48:35;11.97;;;10.80;;
59062;SDS011;44851;45.648;9.004;2024-03-02T12:51:01;11.90;;;10.20;;
59062;SDS011;44851;45.648;9.004;2024-03-02T12:53:27;10.17;;;9.27;;
59062;SDS011;44851;45.648;9.004;2024-03-02T12:55:52;11.27;;;9.47;;
59062;SDS011;44851;45.648;9.004;2024-03-02T12:58:18;9.23;;;8.33;;
59062;SDS011;44851;45.648;9.004;2024-03-02T13:00:45;10.50;;;9.43;;
59062;SDS011;44851;45.648;9.004;2024-03-02T13:03:11;8.80;;;8.00;;
59062;SDS011;44851;45.648;9.004;2024-03-02T13:05:37;9.63;;;8.63;;
59062;SDS011;44851;45.648;9.004;2024-03-02T13:08:02;9.63;;;8.83;;
59062;SDS011;44851;45.648;9.004;2024-03-02T13:10:29;9.40;;;8.50;;
59062;SDS011;44851;45.648;9.004;2024-03-02T13:12:55;9.80;;;8.93;;
59062;SDS011;44851;45.648;9.004;2024-03-02T13:15:21;9.53;;;8.70;;
59062;SDS011;44851;45.648;9.004;2024-03-02T13:17:47;10.07;;;9.17;;
59062;SDS011;44851;45.648;9.004;2024-03-02T13:20:12;10.97;;;9.97;;
59062;SDS011;44851;45.648;9.004;2024-03-02T13:22:39;10.73;;;9.73;;
59062;SDS011;44851;45.648;9.004;2024-03-02T13:25:04;10.60;;;9.67;;
59062;SDS011;44851;45.648;9.004;2024-03-02T13:27:30;9.17;;;8.37;;
59062;SDS011;44851;45.648;9.004;2024-03-02T13:29:59;9.87;;;8.97;;
59062;SDS011;44851;45.648;9.004;2024-03-02T13:32:24;8.73;;;7.97;;
59062;SDS011;44851;45.648;9.004;2024-03-02T13:34:50;9.37;;;8.47;;
59062;SDS011;44851;45.648;9.004;2024-03-02T13:37:16;9.60;;;8.80;;
59062;SDS011;44851;45.648;9.004;2024-03-02T13:39:41;10.67;;;9.73;;
59062;SDS011;44851;45.648;9.004;2024-03-02T13:42:07;12.63;;;11.43;;
59062;SDS011;44851;45.648;9.004;2024-03-02T13:44:34;13.40;;;12.10;;
59062;SDS011;44851;45.648;9.004;2024-03-02T13:47:00;12.33;;;10.97;;
59062;SDS011;44851;45.648;9.004;2024-03-02T13:49:25;11.10;;;9.93;;
59062;SDS011;44851;45.648;9.004;2024-03-02T13:51:58;12.93;;;11.63;;
59062;SDS011;44851;45.648;9.004;2024-03-02T13:54:25;12.37;;;11.27;;
59062;SDS011;44851;45.648;9.004;2024-03-02T13:56:51;12.20;;;11.00;;
59062;SDS011;44851;45.648;9.004;2024-03-02T13:59:17;12.87;;;11.70;;
59062;SDS011;44851;45.648;9.004;2024-03-02T14:01:42;12.63;;;11.43;;
59062;SDS011;44851;45.648;9.004;2024-03-02T14:04:08;12.00;;;10.97;;
59062;SDS011;44851;45.648;9.004;2024-03-02T14:06:34;12.57;;;11.37;;
59062;SDS011;44851;45.648;9.004;2024-03-02T14:08:59;13.10;;;11.90;;
59062;SDS011;44851;45.648;9.004;2024-03-02T14:11:24;10.67;;;9.70;;
59062;SDS011;44851;45.648;9.004;2024-03-02T14:13:50;7.53;;;6.93;;
59062;SDS011;44851;45.648;9.004;2024-03-02T14:16:19;7.93;;;7.23;;
59062;SDS011;44851;45.648;9.004;2024-03-02T14:18:45;8.83;;;7.77;;
59062;SDS011;44851;45.648;9.004;2024-03-02T14:21:10;7.53;;;6.90;;
59062;SDS011;44851;45.648;9.004;2024-03-02T14:23:36;9.30;;;8.47;;
59062;SDS011;44851;45.648;9.004;2024-03-02T14:26:01;9.67;;;8.80;;
59062;SDS011;44851;45.648;9.004;2024-03-02T14:28:27;9.70;;;8.80;;
59062;SDS011;44851;45.648;9.004;2024-03-02T14:30:53;9.37;;;8.57;;
59062;SDS011;44851;45.648;9.004;2024-03-02T14:33:18;11.83;;;10.67;;
59062;SDS011;44851;45.648;9.004;2024-03-02T14:35:44;12.80;;;11.60;;
59062;SDS011;44851;45.648;9.004;2024-03-02T14:38:10;14.47;;;12.97;;
59062;SDS011;44851;45.648;9.004;2024-03-02T14:40:36;14.87;;;13.37;;
59062;SDS011;44851;45.648;9.004;2024-03-02T14:43:01;15.33;;;13.93;;
59062;SDS011;44851;45.648;9.004;2024-03-02T14:45:27;15.57;;;14.10;;
59062;SDS011;44851;45.648;9.004;2024-03-02T14:47:52;14.10;;;12.70;;